Cachoeira do Arari, Brazil
Current Conditions -  °F | °C
As of 6:00 PM on Monday 24 Nov 2014 (Local Time) from SBBE Reporting Station
Few Clouds Few Clouds  
Wind Chill: 86°   Ceiling: Unl
Heat Index: 93°   Visibility: 6mi
Dew Point: 73°   Wind: 13mph
Humidity: 66%   Direction: 20°NNE
Pressure: 29.77"   Gusts: NA
Location:  1.01°S, 48.96°W
Report Text: SBBE 242100Z 02011KT 9999 FEW020 30/23 Q1008
Loading
Personal Weather Stations






























Interactive Weather Map New forecast layout! Learn more

10-Day Weather Forecast

Advertisements
Track Severe Weather on mobile